createdAt,value
2019-05-23T00:01:16.977Z,14.63
2019-05-23T00:03:53.025Z,15.65
2019-05-23T00:06:35.882Z,15.05
2019-05-23T00:09:06.619Z,16.60
2019-05-23T00:11:43.125Z,15.28
2019-05-23T00:14:37.733Z,14.40
2019-05-23T00:17:09.417Z,15.65
2019-05-23T00:19:38.447Z,15.32
2019-05-23T00:22:09.342Z,14.20
2019-05-23T00:24:40.505Z,15.32
2019-05-23T00:27:09.796Z,15.03
2019-05-23T00:29:40.492Z,15.72
2019-05-23T00:32:23.181Z,14.90
2019-05-23T00:34:53.277Z,14.15
2019-05-23T00:37:24.040Z,16.85
2019-05-23T00:39:54.357Z,16.62
2019-05-23T00:42:23.238Z,16.23
2019-05-23T00:44:52.384Z,16.90
2019-05-23T00:47:20.848Z,15.83
2019-05-23T00:49:50.313Z,15.55
2019-05-23T00:52:19.229Z,17.67
2019-05-23T00:54:49.290Z,17.35
2019-05-23T00:57:18.940Z,18.12
2019-05-23T00:59:49.159Z,17.17
2019-05-23T01:02:18.130Z,16.95
2019-05-23T01:04:47.051Z,18.35
2019-05-23T01:07:16.078Z,16.55
2019-05-23T01:09:46.379Z,18.10
2019-05-23T01:12:15.804Z,16.45
2019-05-23T01:14:44.427Z,17.37
2019-05-23T01:17:12.879Z,15.95
2019-05-23T01:19:41.335Z,16.37
2019-05-23T01:22:14.141Z,17.30
2019-05-23T01:24:47.552Z,17.50
2019-05-23T01:27:17.219Z,16.00
2019-05-23T01:29:50.206Z,15.80
2019-05-23T01:32:26.056Z,16.57
2019-05-23T01:34:55.316Z,16.23
2019-05-23T01:37:24.431Z,16.05
2019-05-23T01:39:52.972Z,14.85
2019-05-23T01:42:23.442Z,17.25
2019-05-23T01:44:54.643Z,13.85
2019-05-23T01:47:23.531Z,12.05
2019-05-23T01:49:51.982Z,12.40
2019-05-23T01:52:21.721Z,12.55
2019-05-23T01:54:50.710Z,13.95
2019-05-23T01:57:19.843Z,13.48
2019-05-23T01:59:48.443Z,13.83
2019-05-23T02:02:18.694Z,13.22
2019-05-23T02:04:47.489Z,14.90
2019-05-23T02:07:16.600Z,13.95
2019-05-23T02:09:45.069Z,14.65
2019-05-23T02:12:14.235Z,13.45
2019-05-23T02:14:44.335Z,14.53
2019-05-23T02:17:14.022Z,13.18
2019-05-23T02:19:43.518Z,14.18
2019-05-23T02:22:13.262Z,14.25
2019-05-23T02:24:43.843Z,12.88
2019-05-23T02:27:12.768Z,13.20
2019-05-23T02:29:42.985Z,13.10
2019-05-23T02:32:12.958Z,12.82
2019-05-23T02:34:41.790Z,13.45
2019-05-23T02:37:12.322Z,13.18
2019-05-23T02:40:01.092Z,13.55
2019-05-23T02:42:43.392Z,12.82
2019-05-23T02:45:14.164Z,14.73
2019-05-23T02:47:44.333Z,14.68
2019-05-23T02:50:20.182Z,13.78
2019-05-23T02:52:51.633Z,13.68
2019-05-23T02:55:29.737Z,14.10
2019-05-23T02:58:01.259Z,14.43
2019-05-23T03:00:52.487Z,15.27
2019-05-23T03:03:11.172Z,12.88
2019-05-23T03:05:41.038Z,13.30
2019-05-23T03:08:12.695Z,12.85
2019-05-23T03:10:57.851Z,12.53
2019-05-23T03:13:28.990Z,12.65
2019-05-23T03:15:58.456Z,13.70
2019-05-23T03:18:34.271Z,13.93
2019-05-23T03:21:01.892Z,13.88
2019-05-23T03:23:32.814Z,15.10
2019-05-23T03:26:33.532Z,15.15
2019-05-23T03:29:05.023Z,14.30
2019-05-23T03:31:36.259Z,14.00
2019-05-23T03:34:05.725Z,14.25
2019-05-23T03:36:35.046Z,12.90
2019-05-23T03:39:05.932Z,15.40
2019-05-23T03:41:35.307Z,13.53
2019-05-23T03:44:05.108Z,13.70
2019-05-23T03:46:35.296Z,14.53
2019-05-23T03:49:03.770Z,13.83
2019-05-23T03:51:32.849Z,13.72
2019-05-23T03:54:02.740Z,13.38
2019-05-23T03:56:32.979Z,14.73
2019-05-23T03:59:01.933Z,13.85
2019-05-23T04:01:46.674Z,13.38
2019-05-23T04:04:02.313Z,15.40
2019-05-23T04:06:31.616Z,16.48
2019-05-23T04:09:00.723Z,16.60
2019-05-23T04:11:29.236Z,17.35
2019-05-23T04:13:57.729Z,15.15
2019-05-23T04:16:30.276Z,15.88
2019-05-23T04:18:56.428Z,16.70
2019-05-23T04:21:25.329Z,16.02
2019-05-23T04:23:53.913Z,16.27
2019-05-23T04:26:23.131Z,15.53
2019-05-23T04:28:52.967Z,16.23
2019-05-23T04:31:22.132Z,17.15
2019-05-23T04:33:51.059Z,17.37
2019-05-23T04:36:20.026Z,16.75
2019-05-23T04:38:48.961Z,16.93
2019-05-23T04:41:17.558Z,17.67
2019-05-23T04:43:46.077Z,16.12
2019-05-23T04:46:15.314Z,17.65
2019-05-23T04:48:43.919Z,17.90
2019-05-23T04:51:12.458Z,17.70
2019-05-23T04:53:41.713Z,17.50
2019-05-23T04:56:10.278Z,17.98
2019-05-23T04:58:38.874Z,17.60
2019-05-23T05:01:08.380Z,18.17
2019-05-23T05:03:37.547Z,18.07
2019-05-23T05:06:06.179Z,18.90
2019-05-23T05:08:35.090Z,17.57
2019-05-23T05:11:04.384Z,18.32
2019-05-23T05:13:33.922Z,18.70
2019-05-23T05:16:05.209Z,18.82
2019-05-23T05:18:34.399Z,17.60
2019-05-23T05:21:03.180Z,17.98
2019-05-23T05:23:31.728Z,18.77
2019-05-23T05:26:00.255Z,19.62
2019-05-23T05:28:28.797Z,19.07
2019-05-23T05:30:57.422Z,19.32
2019-05-23T05:33:26.019Z,19.37
2019-05-23T05:35:54.629Z,18.12
2019-05-23T05:38:23.786Z,17.37
2019-05-23T05:40:52.462Z,19.32
2019-05-23T05:43:20.903Z,18.30
2019-05-23T05:45:49.447Z,19.02
2019-05-23T05:48:18.313Z,18.10
2019-05-23T05:50:46.834Z,19.23
2019-05-23T05:53:15.941Z,18.23
2019-05-23T05:55:44.427Z,18.52
2019-05-23T05:58:12.971Z,18.32
2019-05-23T06:00:45.768Z,18.02
2019-05-23T06:03:14.299Z,17.48
2019-05-23T06:05:44.952Z,17.60
2019-05-23T06:08:15.336Z,17.98
2019-05-23T06:10:45.485Z,18.90
2019-05-23T06:13:14.212Z,18.02
2019-05-23T06:15:43.753Z,19.00
2019-05-23T06:18:13.878Z,18.60
2019-05-23T06:20:44.948Z,18.65
2019-05-23T06:23:13.667Z,19.42
2019-05-23T06:25:42.205Z,19.00
2019-05-23T06:28:11.669Z,17.27
2019-05-23T06:30:42.135Z,17.73
2019-05-23T06:33:22.706Z,18.77
2019-05-23T06:35:41.436Z,17.62
2019-05-23T06:38:10.059Z,17.42
2019-05-23T06:40:39.551Z,16.95
2019-05-23T06:43:08.640Z,15.88
2019-05-23T06:45:39.845Z,17.20
2019-05-23T06:48:09.129Z,17.87
2019-05-23T06:50:37.669Z,16.82
2019-05-23T06:53:06.767Z,16.93
2019-05-23T06:55:35.549Z,17.55
2019-05-23T06:58:07.710Z,16.32
2019-05-23T07:00:36.300Z,18.12
2019-05-23T07:03:06.226Z,14.55
2019-05-23T07:05:36.874Z,14.40
2019-05-23T07:08:07.230Z,14.00
2019-05-23T07:10:35.781Z,14.53
2019-05-23T07:13:04.797Z,13.58
2019-05-23T07:15:35.145Z,11.45
2019-05-23T07:18:03.613Z,13.05
2019-05-23T07:20:32.236Z,13.08
2019-05-23T07:23:01.457Z,14.30
2019-05-23T07:25:32.639Z,13.88
2019-05-23T07:28:01.282Z,13.75
2019-05-23T07:30:30.152Z,12.37
2019-05-23T07:32:58.680Z,13.08
2019-05-23T07:35:27.257Z,14.03
2019-05-23T07:37:55.785Z,14.68
2019-05-23T07:40:28.137Z,12.10
2019-05-23T07:42:56.735Z,12.15
2019-05-23T07:45:43.018Z,12.10
2019-05-23T07:48:12.797Z,13.28
2019-05-23T07:50:41.360Z,13.10
2019-05-23T07:53:13.049Z,11.53
2019-05-23T07:55:44.814Z,13.18
2019-05-23T07:58:14.385Z,12.88
2019-05-23T08:00:45.029Z,12.93
2019-05-23T08:03:16.926Z,14.87
2019-05-23T08:05:46.352Z,10.48
2019-05-23T08:08:14.984Z,9.50
2019-05-23T08:10:43.504Z,11.08
2019-05-23T08:13:12.067Z,10.18
2019-05-23T08:15:41.264Z,10.32
2019-05-23T08:18:10.515Z,11.55
2019-05-23T08:20:39.128Z,10.30
2019-05-23T08:23:07.600Z,10.50
2019-05-23T08:25:36.400Z,9.33
2019-05-23T08:28:06.291Z,9.70
2019-05-23T08:30:36.524Z,9.95
2019-05-23T08:33:07.009Z,10.05
2019-05-23T08:35:35.636Z,10.30
2019-05-23T08:38:04.611Z,9.55
2019-05-23T08:40:33.632Z,10.40
2019-05-23T08:43:04.019Z,11.12
2019-05-23T08:45:33.458Z,9.80
2019-05-23T08:48:02.028Z,9.90
2019-05-23T08:50:31.021Z,10.70
2019-05-23T08:52:59.621Z,11.05
2019-05-23T08:55:28.663Z,10.93
2019-05-23T08:57:59.997Z,11.73
2019-05-23T09:00:29.776Z,9.18
2019-05-23T09:02:59.318Z,9.80
2019-05-23T09:05:34.081Z,9.58
2019-05-23T09:08:03.070Z,11.15
2019-05-23T09:10:33.243Z,9.28
2019-05-23T09:13:02.112Z,10.20
2019-05-23T09:15:32.180Z,9.25
2019-05-23T09:18:01.077Z,8.60
2019-05-23T09:20:30.068Z,8.85
2019-05-23T09:22:58.648Z,8.75
2019-05-23T09:25:27.152Z,7.75
2019-05-23T09:27:56.279Z,9.68
2019-05-23T09:30:26.264Z,11.65
2019-05-23T09:32:59.030Z,11.35
2019-05-23T09:35:28.695Z,9.18
2019-05-23T09:37:57.149Z,8.98
2019-05-23T09:40:26.049Z,8.98
2019-05-23T09:42:56.052Z,8.93
2019-05-23T09:45:24.574Z,8.48
2019-05-23T09:47:53.047Z,8.83
2019-05-23T09:50:23.241Z,8.60
2019-05-23T09:52:52.128Z,9.08
2019-05-23T09:55:21.710Z,18.75
2019-05-23T09:57:50.158Z,8.68
2019-05-23T10:00:20.790Z,9.33
2019-05-23T10:02:49.256Z,9.03
2019-05-23T10:05:18.271Z,7.92
2019-05-23T10:07:46.800Z,7.62
2019-05-23T10:10:17.246Z,8.18
2019-05-23T10:12:45.977Z,8.25
2019-05-23T10:15:33.845Z,8.78
2019-05-23T10:18:02.403Z,9.05
2019-05-23T10:20:33.947Z,13.15
2019-05-23T10:23:02.839Z,8.25
2019-05-23T10:25:31.364Z,8.28
2019-05-23T10:27:59.889Z,8.08
2019-05-23T10:30:29.290Z,8.58
2019-05-23T10:32:57.817Z,8.15
2019-05-23T10:35:26.641Z,8.08
2019-05-23T10:37:55.243Z,7.65
2019-05-23T10:40:24.399Z,8.15
2019-05-23T10:42:52.901Z,7.33
2019-05-23T10:45:24.319Z,7.67
2019-05-23T10:47:52.923Z,7.85
2019-05-23T10:50:21.414Z,8.60
2019-05-23T10:52:51.588Z,7.35
2019-05-23T10:55:20.068Z,7.40
2019-05-23T10:57:49.008Z,6.60
2019-05-23T11:00:19.838Z,8.18
2019-05-23T11:02:48.792Z,7.83
2019-05-23T11:05:17.621Z,6.75
2019-05-23T11:07:46.076Z,7.28
2019-05-23T11:10:16.094Z,7.55
2019-05-23T11:12:44.682Z,8.70
2019-05-23T11:15:14.865Z,8.75
2019-05-23T11:17:43.902Z,9.00
2019-05-23T11:20:14.401Z,7.95
2019-05-23T11:22:42.918Z,7.85
2019-05-23T11:25:16.599Z,7.65
2019-05-23T11:27:45.230Z,7.00
2019-05-23T11:30:25.105Z,7.83
2019-05-23T11:32:53.579Z,7.35
2019-05-23T11:35:22.716Z,8.03
2019-05-23T11:37:51.241Z,7.78
2019-05-23T11:40:19.704Z,6.85
2019-05-23T11:42:52.579Z,7.03
2019-05-23T11:45:20.886Z,7.30
2019-05-23T11:47:52.035Z,24.77
2019-05-23T11:52:48.661Z,7.83
2019-05-23T11:55:17.138Z,8.28
2019-05-23T11:57:46.174Z,8.23
2019-05-23T12:00:18.707Z,7.72
2019-05-23T12:02:48.126Z,7.33
2019-05-23T12:05:27.457Z,7.83
2019-05-23T12:07:55.935Z,7.05
2019-05-23T12:10:24.520Z,7.20
2019-05-23T12:12:53.024Z,7.03
2019-05-23T12:15:26.318Z,6.67
2019-05-23T12:17:54.768Z,6.45
2019-05-23T12:20:23.316Z,6.72
2019-05-23T12:22:51.862Z,5.85
2019-05-23T12:25:23.460Z,6.85
2019-05-23T12:27:52.418Z,7.40
2019-05-23T12:30:21.900Z,7.30
2019-05-23T12:32:50.441Z,7.62
2019-05-23T12:35:18.934Z,7.95
2019-05-23T12:37:47.465Z,6.58
2019-05-23T12:40:16.072Z,7.40
2019-05-23T12:42:44.602Z,7.20
2019-05-23T12:45:14.164Z,6.60
2019-05-23T12:47:58.996Z,8.03
2019-05-23T12:50:47.025Z,7.00
2019-05-23T12:53:15.920Z,7.33
2019-05-23T12:55:44.385Z,8.28
2019-05-23T12:58:12.982Z,7.78
2019-05-23T13:00:43.339Z,7.42
2019-05-23T13:03:13.511Z,7.85
2019-05-23T13:05:42.117Z,8.03
2019-05-23T13:08:10.797Z,7.80
2019-05-23T13:10:39.420Z,7.17
2019-05-23T13:13:08.163Z,6.33
2019-05-23T13:15:37.128Z,7.20
2019-05-23T13:18:06.029Z,6.90
2019-05-23T13:20:34.790Z,7.67
2019-05-23T13:23:03.483Z,8.03
2019-05-23T13:25:32.878Z,7.12
2019-05-23T13:28:01.515Z,7.65
2019-05-23T13:30:30.040Z,6.78
2019-05-23T13:32:58.737Z,6.87
2019-05-23T13:35:28.213Z,7.60
2019-05-23T13:37:57.020Z,6.50
2019-05-23T13:40:25.820Z,7.55
2019-05-23T13:42:54.343Z,6.87
2019-05-23T13:45:22.889Z,6.60
2019-05-23T13:47:51.616Z,7.08
2019-05-23T13:50:20.993Z,6.50
2019-05-23T13:52:49.952Z,6.80
2019-05-23T13:55:18.571Z,7.95
2019-05-23T13:57:47.093Z,7.28
2019-05-23T14:00:16.430Z,6.95
2019-05-23T14:02:45.012Z,7.25
2019-05-23T14:05:18.531Z,7.62
2019-05-23T14:07:44.080Z,7.37
2019-05-23T14:10:12.663Z,9.95
2019-05-23T14:12:41.822Z,6.78
2019-05-23T14:15:12.492Z,7.00
2019-05-23T14:17:42.604Z,7.12
2019-05-23T14:20:11.509Z,6.78
2019-05-23T14:22:41.691Z,7.22
2019-05-23T14:25:10.349Z,6.25
2019-05-23T14:27:40.839Z,6.45
2019-05-23T14:30:29.219Z,7.00
2019-05-23T14:33:04.977Z,6.50
2019-05-23T14:35:35.083Z,7.08
2019-05-23T14:38:05.340Z,7.40
2019-05-23T14:40:35.466Z,7.58
2019-05-23T14:43:11.782Z,7.22
2019-05-23T14:45:53.828Z,6.47
2019-05-23T14:48:40.403Z,6.87
2019-05-23T14:51:16.301Z,6.20
2019-05-23T14:53:48.914Z,7.00
2019-05-23T14:56:18.575Z,6.72
2019-05-23T14:58:47.375Z,7.08
2019-05-23T15:01:16.737Z,6.45
2019-05-23T15:03:45.667Z,6.67
2019-05-23T15:06:14.113Z,6.15
2019-05-23T15:08:51.297Z,5.83
2019-05-23T15:11:13.193Z,5.75
2019-05-23T15:13:41.644Z,6.60
2019-05-23T15:16:10.523Z,6.15
2019-05-23T15:18:39.077Z,6.78
2019-05-23T15:21:07.681Z,6.95
2019-05-23T15:23:36.244Z,6.60
2019-05-23T15:26:21.411Z,6.40
2019-05-23T15:28:35.188Z,28.92
2019-05-23T15:31:05.923Z,5.92
2019-05-23T15:33:34.466Z,5.87
2019-05-23T15:36:03.634Z,6.15
2019-05-23T15:38:32.088Z,6.25
2019-05-23T15:41:00.567Z,5.95
2019-05-23T15:43:29.081Z,6.47
2019-05-23T15:45:57.541Z,6.30
2019-05-23T15:48:26.064Z,6.28
2019-05-23T15:50:56.201Z,6.87
2019-05-23T15:53:42.504Z,6.70
2019-05-23T15:56:27.308Z,4.75
2019-05-23T15:58:50.649Z,5.55
2019-05-23T16:01:20.817Z,5.55
2019-05-23T16:04:03.020Z,5.47
2019-05-23T16:06:33.224Z,5.67
2019-05-23T16:09:01.743Z,5.65
2019-05-23T16:11:30.748Z,5.67
2019-05-23T16:13:59.331Z,6.05
2019-05-23T16:16:29.605Z,6.08
2019-05-23T16:18:58.145Z,5.62
2019-05-23T16:21:27.503Z,4.70
2019-05-23T16:24:00.543Z,5.35
2019-05-23T16:26:29.520Z,5.70
2019-05-23T16:28:58.241Z,4.92
2019-05-23T16:31:26.764Z,5.17
2019-05-23T16:33:55.288Z,6.00
2019-05-23T16:36:23.840Z,5.85
2019-05-23T16:38:52.286Z,4.92
2019-05-23T16:41:20.763Z,5.42
2019-05-23T16:43:49.666Z,4.40
2019-05-23T16:46:18.276Z,5.20
2019-05-23T16:48:47.372Z,4.75
2019-05-23T16:51:15.956Z,5.72
2019-05-23T16:53:50.487Z,4.97
2019-05-23T16:56:26.442Z,5.20
2019-05-23T16:58:56.872Z,4.87
2019-05-23T17:01:56.043Z,6.05
2019-05-23T17:04:20.933Z,5.30
2019-05-23T17:06:56.778Z,4.55
2019-05-23T17:09:31.744Z,5.30
2019-05-23T17:12:18.012Z,4.90
2019-05-23T17:14:51.720Z,5.42
2019-05-23T17:17:35.232Z,5.28
2019-05-23T17:19:54.798Z,4.58
2019-05-23T17:22:41.584Z,5.20
2019-05-23T17:25:11.683Z,5.87
2019-05-23T17:27:43.252Z,6.10
2019-05-23T17:30:16.602Z,5.50
2019-05-23T17:32:45.068Z,5.60
2019-05-23T17:35:13.753Z,5.30
2019-05-23T17:37:42.362Z,5.40
2019-05-23T17:40:24.323Z,5.05
2019-05-23T17:42:41.700Z,5.58
2019-05-23T17:45:13.875Z,5.60
2019-05-23T17:47:40.554Z,5.22
2019-05-23T17:50:09.213Z,8.00
2019-05-23T17:52:37.744Z,5.72
2019-05-23T17:55:07.171Z,5.40
2019-05-23T17:57:35.989Z,5.22
2019-05-23T18:00:08.189Z,5.25
2019-05-23T18:05:09.010Z,5.58
2019-05-23T18:07:39.187Z,5.10
2019-05-23T18:10:09.754Z,6.28
2019-05-23T18:12:38.283Z,5.78
2019-05-23T18:15:08.504Z,5.78
2019-05-23T18:17:37.518Z,5.50
2019-05-23T18:20:08.248Z,6.45
2019-05-23T18:22:36.973Z,5.85
2019-05-23T18:25:08.769Z,6.53
2019-05-23T18:27:37.464Z,5.37
2019-05-23T18:30:09.967Z,5.60
2019-05-23T18:32:40.104Z,5.45
2019-05-23T18:35:10.284Z,5.53
2019-05-23T18:37:38.733Z,5.62
2019-05-23T18:40:07.335Z,5.47
2019-05-23T18:42:37.504Z,6.30
2019-05-23T18:45:07.553Z,12.00
2019-05-23T18:47:37.941Z,5.50
2019-05-23T18:50:13.190Z,5.97
2019-05-23T18:52:41.999Z,5.35
2019-05-23T18:55:10.721Z,5.42
2019-05-23T18:57:39.242Z,5.50
2019-05-23T19:00:08.745Z,5.20
2019-05-23T19:02:37.197Z,5.05
2019-05-23T19:05:08.476Z,4.92
2019-05-23T19:07:39.157Z,5.00
2019-05-23T19:10:08.991Z,4.70
2019-05-23T19:12:37.813Z,4.75
2019-05-23T19:15:07.338Z,4.95
2019-05-23T19:17:37.407Z,6.10
2019-05-23T19:20:09.436Z,6.40
2019-05-23T19:22:39.043Z,8.28
2019-05-23T19:25:10.455Z,8.70
2019-05-23T19:27:39.470Z,8.13
2019-05-23T19:30:09.088Z,7.37
2019-05-23T19:32:38.159Z,6.80
2019-05-23T19:35:07.941Z,7.03
2019-05-23T19:37:36.626Z,7.08
2019-05-23T19:40:08.125Z,6.37
2019-05-23T19:42:36.660Z,6.13
2019-05-23T19:45:09.564Z,5.60
2019-05-23T19:47:38.105Z,5.45
2019-05-23T19:50:07.551Z,5.45
2019-05-23T19:52:38.713Z,5.10
2019-05-23T19:55:07.733Z,4.65
2019-05-23T19:57:37.373Z,4.60
2019-05-23T20:00:08.997Z,4.80
2019-05-23T20:02:39.401Z,4.80
2019-05-23T20:05:16.621Z,4.00
2019-05-23T20:07:45.418Z,4.45
2019-05-23T20:10:15.226Z,4.00
2019-05-23T20:12:50.285Z,4.80
2019-05-23T20:15:17.118Z,3.95
2019-05-23T20:17:45.774Z,4.50
2019-05-23T20:20:15.241Z,4.47
2019-05-23T20:22:43.706Z,4.28
2019-05-23T20:25:12.589Z,4.17
2019-05-23T20:27:41.186Z,4.30
2019-05-23T20:30:12.272Z,4.53
2019-05-23T20:32:40.795Z,4.08
2019-05-23T20:35:09.476Z,5.10
2019-05-23T20:37:38.517Z,4.30
2019-05-23T20:40:07.741Z,4.70
2019-05-23T20:42:36.275Z,4.70
2019-05-23T20:45:06.284Z,5.33
2019-05-23T20:47:35.280Z,4.25
2019-05-23T20:50:04.295Z,4.15
2019-05-23T20:52:32.773Z,4.62
2019-05-23T20:55:01.408Z,4.85
2019-05-23T20:57:29.908Z,4.37
2019-05-23T20:59:58.428Z,3.98
2019-05-23T21:02:27.621Z,4.17
2019-05-23T21:04:56.204Z,4.35
2019-05-23T21:07:24.688Z,4.12
2019-05-23T21:09:53.231Z,4.30
2019-05-23T21:12:30.134Z,4.62
2019-05-23T21:14:52.023Z,4.60
2019-05-23T21:17:25.413Z,5.00
2019-05-23T21:19:53.903Z,4.40
2019-05-23T21:22:22.568Z,5.10
2019-05-23T21:24:51.118Z,4.35
2019-05-23T21:27:19.648Z,3.85
2019-05-23T21:29:48.127Z,4.40
2019-05-23T21:32:17.014Z,4.08
2019-05-23T21:34:45.540Z,4.50
2019-05-23T21:37:14.366Z,4.33
2019-05-23T21:39:42.832Z,4.20
2019-05-23T21:42:11.307Z,5.08
2019-05-23T21:44:42.692Z,4.62
2019-05-23T21:47:11.621Z,4.60
2019-05-23T21:49:40.158Z,4.40
2019-05-23T21:52:08.707Z,4.37
2019-05-23T21:54:37.414Z,4.53
2019-05-23T21:57:06.252Z,4.25
2019-05-23T21:59:34.834Z,4.47
2019-05-23T22:02:05.243Z,4.70
2019-05-23T22:04:37.617Z,4.35
2019-05-23T22:09:34.073Z,4.17
2019-05-23T22:12:03.698Z,4.70
2019-05-23T22:14:32.232Z,4.80
2019-05-23T22:17:00.794Z,4.90
2019-05-23T22:19:30.129Z,4.85
2019-05-23T22:21:58.591Z,4.70
2019-05-23T22:24:27.066Z,4.95
2019-05-23T22:26:55.649Z,5.28
2019-05-23T22:29:24.715Z,4.37
2019-05-23T22:31:56.399Z,4.83
2019-05-23T22:34:31.118Z,4.92
2019-05-23T22:36:59.957Z,5.25
2019-05-23T22:39:28.505Z,5.05
2019-05-23T22:41:57.091Z,5.12
2019-05-23T22:44:25.817Z,4.30
2019-05-23T22:46:54.343Z,4.60
2019-05-23T22:49:22.921Z,4.70
2019-05-23T22:51:51.531Z,4.33
2019-05-23T22:54:20.059Z,4.22
2019-05-23T22:56:48.550Z,4.65
2019-05-23T22:59:17.084Z,4.35
2019-05-23T23:01:45.641Z,4.33
2019-05-23T23:04:14.500Z,4.17
2019-05-23T23:06:43.243Z,4.45
2019-05-23T23:09:12.322Z,4.30
2019-05-23T23:11:40.809Z,4.70
2019-05-23T23:14:09.364Z,4.45
2019-05-23T23:16:37.925Z,4.05
2019-05-23T23:19:06.503Z,4.53
2019-05-23T23:21:35.203Z,4.00
2019-05-23T23:24:03.663Z,4.58
2019-05-23T23:26:32.151Z,5.05
2019-05-23T23:29:00.629Z,4.28
2019-05-23T23:31:29.175Z,4.53
2019-05-23T23:33:57.679Z,4.72
2019-05-23T23:36:26.146Z,5.00
2019-05-23T23:38:54.697Z,4.72
2019-05-23T23:41:23.171Z,4.45
2019-05-23T23:43:59.449Z,4.58
2019-05-23T23:46:39.990Z,4.22
2019-05-23T23:49:26.580Z,4.40
2019-05-23T23:52:13.202Z,3.98
2019-05-23T23:54:59.517Z,4.58
2019-05-23T23:57:45.744Z,5.10
